Time;durP1;ratioP1;P1;durP2;ratioP2;P2;SDS_P1;SDS_P2;PMS_P1;PMS_P2;Temp;Humidity;BMP_temperature;BMP_pressure;BME280_temperature;BME280_humidity;BME280_pressure;Samples;Min_cycle;Max_cycle;Signal;HPM_P1;HPM_P2
2022/06/09 00:02:20;;;;;;;20.27;11.00;;;14.70;99.90;;;;;;4990905;28;20045;-70
2022/06/09 00:04:46;;;;;;;27.02;11.23;;;14.70;99.90;;;;;;5007540;28;20080;-70
2022/06/09 00:07:17;;;;;;;25.08;11.88;;;14.60;99.90;;;;;;4996380;28;20075;-70
2022/06/09 00:09:58;;;;;;;22.40;10.95;;;14.60;99.90;;;;;;4991841;28;20049;-70
2022/06/09 00:12:25;;;;;;;16.80;9.35;;;14.60;99.90;;;;;;4981724;28;20493;-70
2022/06/09 00:14:51;;;;;;;30.38;11.75;;;14.60;99.90;;;;;;5015639;28;20423;-70
2022/06/09 00:17:17;;;;;;;20.98;10.65;;;14.50;99.90;;;;;;5003490;28;20060;-71
2022/06/09 00:19:44;;;;;;;24.65;13.07;;;14.50;99.90;;;;;;5006789;28;20132;-71
2022/06/09 00:22:10;;;;;;;19.50;10.45;;;14.50;99.90;;;;;;5026929;28;20094;-71
2022/06/09 00:24:36;;;;;;;24.02;10.18;;;14.40;99.90;;;;;;4987616;28;20096;-71
2022/06/09 00:27:02;;;;;;;34.75;13.25;;;14.40;99.90;;;;;;5011546;28;20038;-71
2022/06/09 00:29:30;;;;;;;24.35;11.95;;;14.40;99.90;;;;;;5005735;28;20049;-71
2022/06/09 00:31:55;;;;;;;31.52;13.70;;;14.30;99.90;;;;;;4988127;28;20054;-72
2022/06/09 00:34:21;;;;;;;18.33;9.68;;;14.30;99.90;;;;;;4990170;28;20057;-71
2022/06/09 00:36:47;;;;;;;19.80;10.55;;;14.30;99.90;;;;;;5030319;28;20045;-71
2022/06/09 00:39:13;;;;;;;22.95;11.55;;;14.30;99.90;;;;;;4988885;28;20121;-71
2022/06/09 00:41:44;;;;;;;27.55;11.35;;;14.30;99.90;;;;;;4989032;28;20049;-71
2022/06/09 00:44:22;;;;;;;20.60;10.00;;;14.20;99.90;;;;;;4987768;28;20046;-71
2022/06/09 00:47:22;;;;;;;21.02;10.05;;;14.20;99.90;;;;;;5004925;28;20042;-71
2022/06/09 00:49:51;;;;;;;;;;;14.10;99.90;;;;;;5020911;28;20053;-71
2022/06/09 00:52:20;;;;;;;17.13;8.70;;;14.00;99.90;;;;;;5003060;28;19960;-71
2022/06/09 00:54:49;;;;;;;13.45;8.65;;;14.00;99.90;;;;;;4997423;28;20121;-72
2022/06/09 00:57:34;;;;;;;20.40;10.10;;;13.90;99.90;;;;;;5036701;28;20509;-71
2022/06/09 01:00:09;;;;;;;20.13;9.45;;;13.90;99.90;;;;;;5005902;28;20050;-71
2022/06/09 01:02:36;;;;;;;17.10;8.68;;;13.90;99.90;;;;;;5036178;28;20046;-71
2022/06/09 01:05:05;;;;;;;21.63;10.18;;;13.90;99.90;;;;;;5033292;28;20057;-71
2022/06/09 01:07:45;;;;;;;24.58;10.82;;;13.90;99.90;;;;;;4979072;28;20636;-71
2022/06/09 01:10:11;;;;;;;38.17;12.85;;;13.90;99.90;;;;;;5001220;28;20089;-71
2022/06/09 01:12:41;;;;;;;21.45;10.30;;;13.90;99.90;;;;;;4985459;28;20049;-71
2022/06/09 01:15:14;;;;;;;21.50;10.60;;;13.90;99.90;;;;;;5001040;28;20051;-71
2022/06/09 01:17:59;;;;;;;40.47;13.80;;;13.80;99.90;;;;;;4987858;28;20049;-70
2022/06/09 01:20:39;;;;;;;32.08;13.02;;;13.80;99.90;;;;;;5003412;28;20117;-71
2022/06/09 01:23:16;;;;;;;26.80;11.80;;;13.80;99.90;;;;;;5001957;28;20042;-71
2022/06/09 01:25:58;;;;;;;28.90;12.48;;;13.80;99.90;;;;;;5002496;28;20299;-71
2022/06/09 01:28:49;;;;;;;28.75;12.13;;;13.80;99.90;;;;;;5019787;28;20050;-71
2022/06/09 01:31:41;;;;;;;;;;;13.70;99.90;;;;;;5039136;28;20046;-70
2022/06/09 01:34:24;;;;;;;25.52;10.75;;;13.70;99.90;;;;;;5009155;28;19922;-71
2022/06/09 01:37:11;;;;;;;23.65;12.57;;;13.70;99.90;;;;;;5039872;28;20121;-71
2022/06/09 01:39:47;;;;;;;38.40;14.18;;;13.80;99.90;;;;;;5006121;28;20628;-71
2022/06/09 01:42:37;;;;;;;29.10;13.00;;;13.80;99.90;;;;;;5002448;28;20038;-71
2022/06/09 01:45:09;;;;;;;;;;;13.80;99.90;;;;;;5004523;28;20436;-71
2022/06/09 01:47:38;;;;;;;39.05;15.77;;;13.70;99.90;;;;;;5006891;28;19926;-71
2022/06/09 01:50:09;;;;;;;36.95;14.50;;;13.70;99.90;;;;;;5001132;28;20538;-71
2022/06/09 01:52:37;;;;;;;42.25;16.10;;;13.70;99.90;;;;;;4990039;28;20046;-70
2022/06/09 01:55:05;;;;;;;35.17;14.95;;;13.70;99.90;;;;;;5002526;28;20046;-71
2022/06/09 01:57:36;;;;;;;37.75;13.68;;;13.80;99.90;;;;;;5000585;28;20057;-71
2022/06/09 02:00:10;;;;;;;24.52;12.40;;;13.70;99.90;;;;;;5002985;28;20531;-71
2022/06/09 02:03:13;;;;;;;28.05;13.10;;;13.70;99.90;;;;;;5000977;28;20049;-71
2022/06/09 02:05:45;;;;;;;34.45;15.23;;;13.70;99.90;;;;;;5000568;28;20132;-71
2022/06/09 02:08:14;;;;;;;26.90;13.38;;;13.70;99.90;;;;;;5034396;28;20050;-71
2022/06/09 02:10:46;;;;;;;28.20;13.23;;;13.60;99.90;;;;;;4995502;28;20529;-71
2022/06/09 02:13:18;;;;;;;27.50;13.70;;;13.60;99.90;;;;;;5001793;28;20285;-71
2022/06/09 02:15:50;;;;;;;29.98;13.68;;;13.60;99.90;;;;;;5000685;28;20050;-71
2022/06/09 02:18:19;;;;;;;23.92;12.55;;;13.60;99.90;;;;;;4998025;28;20034;-70
2022/06/09 02:21:16;;;;;;;23.70;11.90;;;13.60;99.90;;;;;;4997695;28;20058;-71
2022/06/09 02:23:43;;;;;;;28.85;13.55;;;13.50;99.90;;;;;;5006648;28;20054;-71
2022/06/09 02:26:09;;;;;;;41.25;15.35;;;13.60;99.90;;;;;;4981947;28;20113;-70
2022/06/09 02:28:35;;;;;;;28.33;14.35;;;13.50;99.90;;;;;;5033674;28;20053;-71
2022/06/09 02:31:02;;;;;;;37.40;17.15;;;13.50;99.90;;;;;;4983229;28;20034;-71
2022/06/09 02:33:31;;;;;;;40.83;19.20;;;13.50;99.90;;;;;;5000503;28;20143;-70
2022/06/09 02:35:57;;;;;;;24.00;13.48;;;13.40;99.90;;;;;;4987237;28;20042;-70
2022/06/09 02:38:23;;;;;;;29.05;15.40;;;13.40;99.90;;;;;;4987744;28;20046;-70
2022/06/09 02:40:50;;;;;;;24.60;11.25;;;13.40;99.90;;;;;;4988155;28;20064;-70
2022/06/09 02:43:16;;;;;;;24.05;13.15;;;13.40;99.90;;;;;;4998323;28;20052;-70
2022/06/09 02:45:42;;;;;;;24.00;14.10;;;13.30;99.90;;;;;;4970635;28;20424;-70
2022/06/09 02:48:09;;;;;;;19.58;12.55;;;13.30;99.90;;;;;;5034850;28;20037;-71
2022/06/09 02:50:36;;;;;;;20.08;12.95;;;13.30;99.90;;;;;;5013713;28;20102;-71
2022/06/09 02:53:02;;;;;;;26.80;14.80;;;13.20;99.90;;;;;;5014971;28;20087;-70
2022/06/09 02:55:28;;;;;;;41.60;17.77;;;13.20;99.90;;;;;;4986005;28;20630;-71
2022/06/09 02:57:54;;;;;;;27.88;14.43;;;13.10;99.90;;;;;;4965402;28;20042;-71
2022/06/09 03:00:21;;;;;;;18.77;12.50;;;13.10;99.90;;;;;;4984189;28;20049;-71
2022/06/09 03:02:59;;;;;;;25.02;14.57;;;13.00;99.90;;;;;;5001204;28;20199;-71
2022/06/09 03:05:27;;;;;;;28.10;15.60;;;13.10;99.90;;;;;;5000902;28;20370;-71
2022/06/09 03:07:53;;;;;;;26.65;14.55;;;13.00;99.90;;;;;;5008837;28;20909;-70
2022/06/09 03:10:22;;;;;;;29.52;15.07;;;13.00;99.90;;;;;;4999473;28;20049;-71
2022/06/09 03:12:48;;;;;;;23.70;14.15;;;13.00;99.90;;;;;;5000823;28;20145;-71
2022/06/09 03:15:17;;;;;;;29.67;14.90;;;13.00;99.90;;;;;;5019134;28;20049;-71
2022/06/09 03:17:44;;;;;;;23.60;12.85;;;12.90;99.90;;;;;;5009057;28;20452;-71
2022/06/09 03:20:15;;;;;;;28.60;14.73;;;12.90;99.90;;;;;;4986142;28;20076;-71
2022/06/09 03:22:40;;;;;;;23.90;12.57;;;13.00;99.90;;;;;;5004173;28;20054;-72
2022/06/09 03:25:07;;;;;;;23.90;12.30;;;12.90;99.90;;;;;;4986066;28;20049;-72
2022/06/09 03:27:33;;;;;;;20.00;12.10;;;12.90;99.90;;;;;;5011636;28;20038;-71
2022/06/09 03:30:01;;;;;;;33.78;14.00;;;12.90;99.90;;;;;;5001822;28;20392;-71
2022/06/09 03:32:30;;;;;;;41.83;16.13;;;12.80;99.90;;;;;;4998682;28;20052;-71
2022/06/09 03:34:56;;;;;;;19.85;10.80;;;12.80;99.90;;;;;;5002386;28;20045;-72
2022/06/09 03:37:23;;;;;;;19.27;11.55;;;12.70;99.90;;;;;;4989578;28;20401;-71
2022/06/09 03:39:49;;;;;;;18.52;11.65;;;12.70;99.90;;;;;;4996136;28;20479;-71
2022/06/09 03:42:14;;;;;;;20.30;11.40;;;12.70;99.90;;;;;;5033757;28;20107;-71
2022/06/09 03:44:40;;;;;;;21.98;12.23;;;12.70;99.90;;;;;;4998318;28;20065;-70
2022/06/09 03:47:07;;;;;;;21.45;12.75;;;12.70;99.90;;;;;;5015939;28;20489;-72
2022/06/09 03:49:33;;;;;;;16.70;11.43;;;12.70;99.90;;;;;;5009602;28;20045;-71
2022/06/09 03:51:58;;;;;;;20.00;12.48;;;12.70;99.90;;;;;;5032354;28;20086;-70
2022/06/09 03:54:24;;;;;;;19.20;11.65;;;12.70;99.90;;;;;;5003042;28;20527;-70
2022/06/09 03:56:51;;;;;;;27.98;16.45;;;12.70;99.90;;;;;;4985779;28;20046;-70
2022/06/09 03:59:17;;;;;;;21.17;13.45;;;12.70;99.90;;;;;;5001648;28;20057;-70
2022/06/09 04:01:46;;;;;;;21.92;14.45;;;12.60;99.90;;;;;;4995184;28;20045;-70
2022/06/09 04:04:12;;;;;;;19.80;12.23;;;12.60;99.90;;;;;;4986608;28;20084;-72
2022/06/09 04:06:38;;;;;;;18.80;12.90;;;12.70;99.90;;;;;;5019142;28;20457;-71
2022/06/09 04:09:05;;;;;;;21.35;14.93;;;12.60;99.90;;;;;;5003785;28;20053;-71
2022/06/09 04:11:32;;;;;;;25.85;14.73;;;12.70;99.90;;;;;;5006515;28;20554;-71
2022/06/09 04:13:58;;;;;;;31.05;19.70;;;12.70;99.90;;;;;;5039380;28;20122;-71
2022/06/09 04:16:30;;;;;;;24.08;17.27;;;12.80;99.90;;;;;;5001899;28;20044;-71
2022/06/09 04:18:59;;;;;;;31.60;18.33;;;12.80;99.90;;;;;;4999939;28;20155;-71
2022/06/09 04:21:25;;;;;;;23.17;16.20;;;12.80;99.90;;;;;;5008200;28;20476;-71
2022/06/09 04:23:51;;;;;;;24.70;17.08;;;12.90;99.90;;;;;;4987346;28;20034;-71
2022/06/09 04:26:21;;;;;;;24.30;17.10;;;12.90;99.90;;;;;;5039861;28;20054;-71
2022/06/09 04:28:47;;;;;;;22.38;16.33;;;13.00;99.90;;;;;;4987820;28;20115;-70
2022/06/09 04:31:14;;;;;;;23.17;14.52;;;13.00;99.90;;;;;;5004331;28;20042;-70
2022/06/09 04:33:40;;;;;;;22.98;16.55;;;13.10;99.90;;;;;;5012507;28;20045;-71
2022/06/09 04:36:08;;;;;;;23.02;14.45;;;13.10;99.90;;;;;;5019931;28;20045;-70
2022/06/09 04:38:36;;;;;;;26.10;16.25;;;13.20;99.90;;;;;;5006319;28;20041;-71
2022/06/09 04:41:03;;;;;;;26.67;16.85;;;13.20;99.90;;;;;;4997658;28;20035;-70
2022/06/09 04:43:29;;;;;;;24.77;15.65;;;13.30;99.90;;;;;;4995356;28;20405;-71
2022/06/09 04:45:55;;;;;;;27.17;16.85;;;13.40;99.90;;;;;;4966151;28;20049;-72
2022/06/09 04:48:21;;;;;;;26.77;16.33;;;13.40;99.90;;;;;;5001898;28;20045;-72
2022/06/09 04:50:47;;;;;;;24.05;15.65;;;13.40;99.90;;;;;;4985596;28;20168;-70
2022/06/09 04:53:12;;;;;;;21.25;13.75;;;13.50;99.90;;;;;;5024050;28;20404;-70
2022/06/09 04:55:40;;;;;;;25.10;15.88;;;13.50;99.90;;;;;;5006066;28;20065;-70
2022/06/09 04:58:06;;;;;;;23.40;15.18;;;13.60;99.90;;;;;;5012248;28;20069;-70
2022/06/09 05:00:32;;;;;;;24.40;17.00;;;13.60;99.90;;;;;;4996173;28;20038;-72
2022/06/09 05:02:59;;;;;;;23.27;17.98;;;13.70;99.90;;;;;;5016384;28;20044;-70
2022/06/09 05:05:29;;;;;;;22.67;17.05;;;13.70;99.90;;;;;;4993010;28;20066;-70
2022/06/09 05:07:55;;;;;;;22.90;16.00;;;13.80;99.90;;;;;;4997374;28;20042;-70
2022/06/09 05:10:21;;;;;;;28.00;19.77;;;13.80;99.90;;;;;;4994271;28;20108;-70
2022/06/09 05:12:47;;;;;;;33.85;23.55;;;13.80;99.90;;;;;;5036980;28;20509;-70
2022/06/09 05:15:17;;;;;;;30.55;21.90;;;13.90;99.90;;;;;;4983145;28;20042;-70
2022/06/09 05:17:44;;;;;;;35.20;25.67;;;13.90;99.90;;;;;;4998055;28;20504;-71
2022/06/09 05:20:13;;;;;;;44.85;27.33;;;13.90;99.90;;;;;;4978849;28;20050;-71
2022/06/09 05:22:41;;;;;;;37.15;25.30;;;13.90;99.90;;;;;;4979337;28;20034;-70
2022/06/09 05:25:09;;;;;;;28.20;23.58;;;13.90;99.90;;;;;;5000500;28;20052;-70
2022/06/09 05:27:35;;;;;;;36.65;26.45;;;14.00;99.90;;;;;;4980465;28;20161;-70
2022/06/09 05:30:03;;;;;;;36.15;27.60;;;14.00;99.90;;;;;;4982056;28;20046;-70
2022/06/09 05:32:29;;;;;;;37.65;26.75;;;14.00;99.90;;;;;;4983666;28;20556;-70
2022/06/09 05:34:55;;;;;;;36.10;29.08;;;14.00;99.90;;;;;;4969692;28;20536;-71
2022/06/09 05:37:21;;;;;;;36.83;30.25;;;14.00;99.90;;;;;;4983782;28;20053;-70
2022/06/09 05:45:16;;;;;;;42.95;31.10;;;14.10;99.90;;;;;;5023495;28;20496;-71
2022/06/09 05:47:42;;;;;;;58.78;35.13;;;14.10;99.90;;;;;;5003258;28;20049;-71
2022/06/09 05:50:09;;;;;;;39.35;31.80;;;14.10;99.90;;;;;;4999431;28;20053;-71
2022/06/09 05:52:35;;;;;;;46.00;32.55;;;14.10;99.90;;;;;;4993124;28;20057;-71
2022/06/09 05:55:02;;;;;;;34.00;29.00;;;14.10;99.90;;;;;;4986663;28;20184;-72
2022/06/09 05:57:28;;;;;;;33.65;30.02;;;14.10;99.90;;;;;;4987921;28;20046;-71
2022/06/09 05:59:55;;;;;;;54.92;34.42;;;14.10;99.90;;;;;;4985010;28;20061;-72
2022/06/09 06:02:24;;;;;;;47.28;33.65;;;14.10;99.90;;;;;;5008226;28;20125;-72
2022/06/09 06:04:50;;;;;;;43.60;33.13;;;14.20;99.90;;;;;;5017405;28;20056;-71
2022/06/09 06:07:16;;;;;;;38.33;32.28;;;14.20;99.90;;;;;;5003696;28;20057;-71
2022/06/09 06:09:42;;;;;;;39.90;33.33;;;14.20;99.90;;;;;;4986290;28;20052;-71
2022/06/09 06:12:09;;;;;;;51.83;34.30;;;14.30;99.90;;;;;;5024456;28;20045;-72
2022/06/09 06:14:35;;;;;;;36.33;30.17;;;14.30;99.90;;;;;;5002491;28;20124;-70
2022/06/09 06:17:02;;;;;;;43.75;34.40;;;14.40;99.90;;;;;;5012088;28;20117;-71
2022/06/09 06:19:28;;;;;;;49.53;34.75;;;14.40;99.90;;;;;;5002598;28;20050;-71
2022/06/09 06:21:56;;;;;;;34.40;28.88;;;14.40;99.90;;;;;;5021986;28;20288;-71
2022/06/09 06:24:24;;;;;;;82.22;39.72;;;14.40;99.90;;;;;;5001843;28;20053;-72
2022/06/09 06:26:51;;;;;;;53.33;36.05;;;14.50;99.90;;;;;;5003912;28;20046;-72
2022/06/09 06:29:22;;;;;;;40.53;32.33;;;14.50;99.90;;;;;;4997890;28;20133;-72
2022/06/09 06:31:49;;;;;;;36.88;31.45;;;14.60;99.90;;;;;;5004426;28;20046;-72
2022/06/09 06:34:16;;;;;;;44.60;34.38;;;14.60;99.90;;;;;;4983322;28;20054;-72
2022/06/09 06:36:42;;;;;;;44.13;33.17;;;14.70;99.90;;;;;;4988514;28;20115;-72
2022/06/09 06:39:08;;;;;;;39.80;32.67;;;14.70;99.90;;;;;;4988732;28;20109;-72
2022/06/09 06:41:34;;;;;;;35.08;28.65;;;14.80;99.90;;;;;;5003895;28;20497;-72
2022/06/09 06:44:00;;;;;;;36.20;31.63;;;14.90;99.90;;;;;;5001281;28;20168;-72
2022/06/09 06:46:27;;;;;;;30.00;26.52;;;15.00;99.90;;;;;;5016342;28;20041;-72
2022/06/09 06:48:53;;;;;;;30.70;27.08;;;15.10;99.90;;;;;;5022697;28;20136;-71
2022/06/09 06:51:19;;;;;;;31.00;26.30;;;15.20;99.90;;;;;;4984912;28;20069;-73
2022/06/09 06:53:45;;;;;;;29.52;24.85;;;15.40;99.90;;;;;;5001032;28;20053;-72
2022/06/09 06:56:11;;;;;;;26.35;23.55;;;15.50;99.90;;;;;;4971216;28;20042;-71
2022/06/09 06:58:38;;;;;;;25.15;22.60;;;15.60;99.90;;;;;;4998218;28;20049;-72
2022/06/09 07:01:04;;;;;;;25.25;22.55;;;15.60;99.90;;;;;;5015558;28;20515;-72
2022/06/09 07:03:31;;;;;;;24.70;22.20;;;15.70;99.90;;;;;;5004881;28;20480;-72
2022/06/09 07:05:57;;;;;;;24.10;21.70;;;15.80;99.90;;;;;;5001422;28;20452;-72
2022/06/09 07:08:24;;;;;;;23.42;21.23;;;15.90;99.90;;;;;;4983689;28;20149;-71
2022/06/09 07:10:52;;;;;;;22.30;19.98;;;16.00;99.90;;;;;;5001024;28;20054;-73
2022/06/09 07:13:19;;;;;;;21.13;19.02;;;16.10;99.90;;;;;;4986349;28;20045;-72
2022/06/09 07:15:45;;;;;;;18.88;16.77;;;16.20;99.90;;;;;;5015901;28;20077;-73
2022/06/09 07:18:14;;;;;;;22.25;19.95;;;16.10;99.90;;;;;;5002271;28;20437;-72
2022/06/09 07:20:40;;;;;;;20.30;18.17;;;16.30;99.90;;;;;;4987085;28;20057;-71
2022/06/09 07:23:06;;;;;;;16.45;14.82;;;16.50;99.90;;;;;;4965682;28;20526;-72
2022/06/09 07:25:32;;;;;;;19.52;15.82;;;16.60;99.90;;;;;;5001271;28;20042;-72
2022/06/09 07:27:58;;;;;;;14.60;13.07;;;16.70;99.90;;;;;;4993824;28;20099;-71
2022/06/09 07:30:27;;;;;;;16.63;15.00;;;16.80;99.90;;;;;;5004065;28;20140;-73
2022/06/09 07:32:53;;;;;;;15.13;13.43;;;16.90;99.90;;;;;;5013299;28;20045;-72
2022/06/09 07:35:22;;;;;;;14.40;13.00;;;16.90;99.90;;;;;;4982685;28;20096;-72
2022/06/09 07:37:48;;;;;;;12.95;11.45;;;16.90;99.90;;;;;;4995682;28;20042;-73
2022/06/09 07:40:15;;;;;;;11.48;10.32;;;16.90;99.90;;;;;;4975962;28;20038;-73
2022/06/09 07:42:41;;;;;;;11.25;8.65;;;17.10;99.90;;;;;;5020943;28;20049;-73
2022/06/09 07:45:09;;;;;;;12.13;9.10;;;17.30;99.90;;;;;;4989574;28;20045;-72
2022/06/09 07:47:35;;;;;;;9.40;8.48;;;17.50;99.90;;;;;;5033998;28;20124;-72
2022/06/09 07:50:02;;;;;;;9.10;7.22;;;17.60;99.90;;;;;;5046306;28;20038;-71
2022/06/09 07:52:28;;;;;;;8.90;7.93;;;17.70;99.90;;;;;;4986831;28;20052;-72
2022/06/09 07:54:54;;;;;;;8.15;6.13;;;17.70;99.90;;;;;;5004930;28;20045;-72
2022/06/09 07:57:19;;;;;;;8.38;6.43;;;17.70;99.90;;;;;;4998321;28;20042;-72
2022/06/09 07:59:45;;;;;;;9.85;7.13;;;17.70;99.90;;;;;;4988608;28;20581;-71
2022/06/09 08:02:12;;;;;;;7.28;5.93;;;17.90;99.90;;;;;;5005782;28;20057;-71
2022/06/09 08:04:38;;;;;;;9.18;5.60;;;18.00;99.90;;;;;;4989207;28;20132;-72
2022/06/09 08:07:05;;;;;;;10.25;5.53;;;18.00;99.90;;;;;;5003247;28;20191;-72
2022/06/09 08:09:31;;;;;;;5.85;4.28;;;18.00;99.90;;;;;;4989173;28;20044;-72
2022/06/09 08:11:57;;;;;;;7.70;3.42;;;18.00;99.90;;;;;;5000960;28;20077;-72
2022/06/09 08:14:23;;;;;;;9.30;3.13;;;18.20;99.90;;;;;;4989183;28;20513;-73
2022/06/09 08:16:49;;;;;;;9.05;3.75;;;18.40;99.90;;;;;;4972878;28;20041;-73
2022/06/09 08:19:14;;;;;;;7.78;4.60;;;18.50;99.90;;;;;;4971093;28;20042;-73
2022/06/09 08:21:41;;;;;;;6.22;2.92;;;18.50;99.90;;;;;;5008206;28;20328;-71
2022/06/09 08:24:07;;;;;;;6.25;2.97;;;18.50;99.90;;;;;;5000814;28;20128;-72
2022/06/09 08:26:33;;;;;;;5.22;2.17;;;18.50;99.90;;;;;;5025893;28;20149;-72
2022/06/09 08:28:59;;;;;;;4.82;2.40;;;18.70;99.90;;;;;;4992573;28;20077;-72
2022/06/09 08:31:25;;;;;;;5.10;2.10;;;18.90;99.90;;;;;;5007269;28;20088;-73
2022/06/09 08:33:51;;;;;;;6.13;2.00;;;19.10;99.90;;;;;;4985689;28;20078;-73
2022/06/09 08:36:17;;;;;;;4.90;1.85;;;19.30;99.90;;;;;;5021762;28;20046;-72
2022/06/09 08:38:42;;;;;;;5.18;1.67;;;19.60;99.90;;;;;;4987459;28;20120;-72
2022/06/09 08:41:18;;;;;;;8.00;1.70;;;19.60;99.90;;;;;;4988371;28;20037;-73
2022/06/09 08:44:00;;;;;;;5.28;1.70;;;19.50;99.90;;;;;;5033799;28;20396;-73
2022/06/09 08:46:36;;;;;;;5.50;2.00;;;19.30;99.90;;;;;;5005259;28;20052;-72
2022/06/09 08:49:05;;;;;;;5.93;2.60;;;19.00;99.90;;;;;;5016031;28;20489;-73
2022/06/09 08:51:42;;;;;;;5.07;2.42;;;18.80;99.90;;;;;;4988336;28;20403;-72
2022/06/09 08:54:23;;;;;;;4.60;2.00;;;18.70;99.90;;;;;;5022356;28;20046;-73
2022/06/09 08:56:50;;;;;;;5.25;2.20;;;18.80;99.90;;;;;;5021950;28;20061;-73
2022/06/09 08:59:22;;;;;;;5.38;1.70;;;19.00;99.90;;;;;;5005617;28;20077;-72
2022/06/09 09:02:03;;;;;;;4.85;2.30;;;19.30;99.90;;;;;;4983283;28;20041;-73
2022/06/09 09:04:29;;;;;;;5.80;1.90;;;19.60;99.90;;;;;;5003575;28;20109;-72
2022/06/09 09:07:11;;;;;;;5.75;1.80;;;19.80;99.90;;;;;;5017035;28;20457;-73
2022/06/09 09:09:38;;;;;;;4.35;1.20;;;19.80;99.90;;;;;;5007430;28;20057;-73
2022/06/09 09:12:37;;;;;;;3.83;1.23;;;19.80;99.90;;;;;;4986714;28;20136;-73
2022/06/09 09:15:14;;;;;;;5.40;1.48;;;19.80;99.90;;;;;;4989964;28;20084;-73
2022/06/09 09:18:14;;;;;;;5.95;1.67;;;19.90;99.90;;;;;;4986430;28;20057;-73
2022/06/09 09:20:59;;;;;;;4.30;1.40;;;19.90;99.90;;;;;;5003004;28;20416;-72
2022/06/09 09:23:51;;;;;;;6.22;1.55;;;19.90;99.90;;;;;;4997919;28;20068;-73
2022/06/09 09:26:48;;;;;;;5.80;1.77;;;19.80;99.90;;;;;;4988892;28;20049;-73
2022/06/09 09:29:27;;;;;;;3.53;1.17;;;19.80;99.90;;;;;;4988550;28;20583;-73
2022/06/09 09:31:57;;;;;;;3.75;1.38;;;20.10;99.90;;;;;;5040851;28;20053;-73
2022/06/09 09:34:45;;;;;;;3.08;1.08;;;20.10;99.90;;;;;;4997308;28;20034;-73
2022/06/09 09:37:23;;;;;;;7.03;1.50;;;20.20;99.90;;;;;;5000426;28;20056;-74
2022/06/09 09:40:12;;;;;;;7.50;1.58;;;20.30;99.90;;;;;;5035473;28;20468;-74
2022/06/09 09:42:42;;;;;;;5.18;1.63;;;20.40;99.90;;;;;;4986182;28;20377;-73
2022/06/09 09:45:11;;;;;;;4.15;1.20;;;20.60;99.90;;;;;;5008177;28;20504;-71
2022/06/09 09:47:49;;;;;;;5.25;1.58;;;20.70;99.90;;;;;;5017595;28;20049;-73
2022/06/09 09:50:47;;;;;;;6.03;1.35;;;20.90;99.90;;;;;;5001918;28;20069;-73
2022/06/09 09:53:19;;;;;;;4.90;1.23;;;20.90;99.90;;;;;;4999581;28;20319;-73
2022/06/09 09:56:22;;;;;;;4.60;1.40;;;20.90;99.90;;;;;;5008924;28;20068;-73
2022/06/09 09:58:48;;;;;;;5.93;1.52;;;20.80;99.90;;;;;;5002321;28;20037;-73
2022/06/09 10:01:17;;;;;;;3.95;1.20;;;20.80;99.90;;;;;;5003446;28;20261;-74
2022/06/09 10:09:40;;;;;;;5.30;1.90;;;21.30;99.90;;;;;;5002584;28;20050;-73
2022/06/09 10:12:16;;;;;;;5.57;1.63;;;21.50;99.90;;;;;;4987510;28;20140;-73
2022/06/09 10:14:52;;;;;;;6.00;1.30;;;21.40;99.90;;;;;;5002570;28;20125;-73
2022/06/09 10:17:39;;;;;;;5.22;1.48;;;21.10;99.90;;;;;;5021590;28;20492;-72
2022/06/09 10:20:08;;;;;;;5.90;1.60;;;21.20;99.90;;;;;;5001697;28;20397;-73
2022/06/09 10:22:37;;;;;;;6.38;1.85;;;21.20;99.90;;;;;;4985930;28;20053;-73
2022/06/09 10:25:20;;;;;;;7.50;1.60;;;21.30;99.90;;;;;;5001218;28;20038;-73
2022/06/09 10:27:49;;;;;;;4.45;1.05;;;21.20;99.90;;;;;;5001170;28;20061;-74
2022/06/09 10:30:25;;;;;;;3.08;1.00;;;21.10;99.90;;;;;;5000407;28;20520;-74
2022/06/09 10:32:58;;;;;;;5.00;1.58;;;21.10;99.90;;;;;;5006407;28;20042;-73
2022/06/09 10:35:59;;;;;;;4.15;1.10;;;21.40;99.90;;;;;;4992447;28;20054;-74
2022/06/09 10:38:44;;;;;;;5.00;1.25;;;21.60;99.90;;;;;;5010739;28;20047;-73
2022/06/09 10:41:13;;;;;;;7.55;1.38;;;21.80;99.90;;;;;;5038017;28;20366;-73
2022/06/09 10:44:03;;;;;;;6.05;1.30;;;21.60;99.90;;;;;;5003249;28;20524;-74
2022/06/09 10:46:40;;;;;;;5.05;1.65;;;21.30;99.90;;;;;;5001071;28;20034;-74
2022/06/09 10:55:24;;;;;;;5.03;1.33;;;20.80;99.90;;;;;;4998158;28;20053;-73
2022/06/09 10:58:17;;;;;;;4.40;0.77;;;21.00;99.90;;;;;;5021130;28;20046;-73
2022/06/09 11:00:46;;;;;;;4.35;1.00;;;21.30;99.90;;;;;;5005353;28;20140;-72
2022/06/09 11:03:19;;;;;;;4.93;1.23;;;21.60;99.90;;;;;;4985353;28;20041;-74
2022/06/09 11:05:52;;;;;;;5.38;1.27;;;21.80;99.90;;;;;;4999464;28;20050;-73
2022/06/09 11:08:35;;;;;;;2.72;0.88;;;21.90;99.90;;;;;;5020613;28;20407;-74
2022/06/09 11:11:34;;;;;;;6.32;0.77;;;21.90;99.90;;;;;;5017165;28;20120;-73
2022/06/09 11:14:16;;;;;;;3.67;1.00;;;21.80;99.90;;;;;;5002653;28;20185;-74
2022/06/09 11:17:19;;;;;;;5.07;1.10;;;21.60;99.90;;;;;;4991477;28;20049;-74
2022/06/09 11:20:06;;;;;;;3.65;0.88;;;21.70;99.90;;;;;;5027052;28;20112;-74
2022/06/09 11:22:40;;;;;;;2.85;0.90;;;21.90;99.90;;;;;;5036049;28;20042;-72
2022/06/09 11:25:25;;;;;;;4.97;0.70;;;22.10;99.90;;;;;;4998988;28;20046;-74
2022/06/09 11:28:00;;;;;;;3.95;0.80;;;22.10;99.90;;;;;;5007865;28;20104;-73
2022/06/09 11:30:35;;;;;;;5.20;1.13;;;22.10;99.90;;;;;;4987119;28;20116;-72
2022/06/09 11:33:25;;;;;;;3.90;1.08;;;22.10;99.90;;;;;;5008845;28;20048;-72
2022/06/09 11:36:10;;;;;;;5.20;1.35;;;22.10;99.90;;;;;;5001823;28;20409;-73
2022/06/09 11:39:14;;;;;;;4.78;0.90;;;22.20;99.90;;;;;;5003563;28;20045;-72
2022/06/09 11:42:00;;;;;;;6.25;0.90;;;22.30;99.90;;;;;;5004583;28;20041;-73
2022/06/09 11:44:29;;;;;;;5.65;1.27;;;22.20;99.90;;;;;;5040096;28;20049;-72
2022/06/09 11:47:10;;;;;;;6.47;1.00;;;22.40;99.90;;;;;;5007934;28;20586;-73
2022/06/09 11:49:44;;;;;;;4.10;0.80;;;22.50;99.90;;;;;;5026995;28;20469;-73
2022/06/09 11:52:20;;;;;;;5.30;0.80;;;22.40;99.90;;;;;;5002469;28;20177;-73
2022/06/09 11:54:49;;;;;;;5.45;0.88;;;22.50;99.90;;;;;;5004249;28;20061;-72
2022/06/09 11:57:27;;;;;;;3.33;0.93;;;22.50;99.90;;;;;;4987064;28;20374;-72
2022/06/09 11:59:59;;;;;;;3.40;0.98;;;22.50;99.90;;;;;;5007447;28;20405;-74
2022/06/09 12:02:40;;;;;;;9.40;1.48;;;22.50;99.90;;;;;;5003535;28;20044;-74
2022/06/09 12:05:14;;;;;;;4.65;1.05;;;22.40;99.90;;;;;;5003924;28;20088;-74
2022/06/09 12:07:40;;;;;;;4.00;0.90;;;22.00;99.90;;;;;;5003341;28;20136;-72
2022/06/09 12:10:45;;;;;;;3.80;0.90;;;21.70;99.90;;;;;;4990092;28;20405;-74
2022/06/09 12:13:58;;;;;;;4.45;0.80;;;21.60;99.90;;;;;;5016861;28;20124;-74
2022/06/09 12:16:52;;;;;;;5.70;1.20;;;21.50;99.90;;;;;;4969508;28;20057;-73
2022/06/09 12:19:22;;;;;;;3.90;1.00;;;21.70;99.90;;;;;;5022679;28;20060;-74
2022/06/09 12:21:55;;;;;;;4.28;1.00;;;21.90;99.90;;;;;;4984486;28;20084;-74
2022/06/09 12:24:33;;;;;;;4.13;0.98;;;21.90;99.90;;;;;;5002068;28;20469;-74
2022/06/09 12:27:34;;;;;;;5.03;1.10;;;21.90;99.90;;;;;;4987127;28;20046;-74
2022/06/09 12:30:00;;;;;;;2.97;1.15;;;21.90;99.90;;;;;;4985427;28;20073;-73
2022/06/09 12:32:37;;;;;;;5.95;1.75;;;21.80;99.90;;;;;;5002868;28;20089;-74
2022/06/09 12:35:14;;;;;;;5.20;0.98;;;21.70;99.90;;;;;;4988895;28;20049;-74
2022/06/09 12:37:58;;;;;;;4.45;1.20;;;21.80;99.90;;;;;;4985452;28;20143;-74
2022/06/09 12:40:33;;;;;;;5.78;1.17;;;22.00;99.90;;;;;;5005697;28;20110;-74
2022/06/09 12:43:08;;;;;;;4.80;1.10;;;22.30;99.90;;;;;;5017743;28;20034;-73
2022/06/09 12:45:36;;;;;;;14.15;1.30;;;22.40;99.90;;;;;;5022171;28;20049;-74
2022/06/09 12:48:14;;;;;;;5.28;1.00;;;22.30;99.90;;;;;;5005110;28;20041;-74
2022/06/09 12:50:51;;;;;;;9.40;1.33;;;22.30;99.90;;;;;;5001969;28;20050;-72
2022/06/09 12:53:40;;;;;;;5.57;1.00;;;22.20;99.90;;;;;;5013853;28;20049;-72
2022/06/09 12:56:26;;;;;;;4.93;1.00;;;22.00;99.90;;;;;;4991306;28;20417;-73
2022/06/09 12:58:54;;;;;;;4.32;0.90;;;21.70;99.90;;;;;;5027136;28;20042;-72
2022/06/09 13:01:29;;;;;;;5.63;1.30;;;21.50;99.90;;;;;;5005156;28;20042;-72
2022/06/09 13:03:55;;;;;;;7.53;1.42;;;21.40;99.90;;;;;;5022361;28;20038;-72
2022/06/09 13:06:23;;;;;;;4.07;1.00;;;21.50;99.90;;;;;;5006178;28;20093;-72
2022/06/09 13:08:54;;;;;;;5.35;0.98;;;21.50;99.90;;;;;;5020157;28;20444;-72
2022/06/09 13:12:50;;;;;;;6.30;1.33;;;21.50;99.90;;;;;;4991331;28;20125;-72
2022/06/09 13:14:12;;;;;;;3.28;0.88;;;21.50;99.90;;;;;;5039335;28;20054;-72
2022/06/09 13:16:44;;;;;;;4.07;1.00;;;21.60;99.90;;;;;;5005724;28;20070;-72
2022/06/09 13:19:13;;;;;;;6.80;1.30;;;21.70;99.90;;;;;;5002984;28;20548;-72